createdAt,value
2022-11-30T00:01:51.433Z,95.17
2022-11-30T00:04:21.586Z,94.57
2022-11-30T00:06:49.514Z,94.53
2022-11-30T00:09:17.285Z,94.66
2022-11-30T00:11:44.872Z,94.49
2022-11-30T00:14:14.351Z,94.87
2022-11-30T00:16:42.062Z,94.72
2022-11-30T00:19:09.736Z,94.78
2022-11-30T00:21:37.585Z,94.69
2022-11-30T00:24:08.824Z,94.68
2022-11-30T00:26:37.137Z,94.47
2022-11-30T00:29:06.199Z,94.59
2022-11-30T00:31:35.789Z,94.30
2022-11-30T00:34:04.136Z,94.19
2022-11-30T00:36:31.843Z,94.01
2022-11-30T00:38:59.448Z,94.11
2022-11-30T00:41:27.094Z,95.12
2022-11-30T00:43:54.864Z,94.94
2022-11-30T00:46:22.548Z,94.83
2022-11-30T00:48:52.156Z,95.17
2022-11-30T00:51:20.352Z,95.41
2022-11-30T00:53:48.514Z,95.24
2022-11-30T00:56:18.837Z,95.26
2022-11-30T00:58:47.075Z,95.03
2022-11-30T01:01:17.083Z,95.17
2022-11-30T01:03:51.138Z,95.19
2022-11-30T01:06:48.032Z,94.78
2022-11-30T01:09:16.234Z,94.53
2022-11-30T01:11:46.353Z,95.04
2022-11-30T01:14:16.669Z,95.32
2022-11-30T01:16:44.844Z,95.06
2022-11-30T01:19:25.349Z,95.68
2022-11-30T01:22:04.963Z,95.09
2022-11-30T01:24:39.814Z,95.34
2022-11-30T01:27:08.284Z,94.97
2022-11-30T01:29:35.978Z,94.88
2022-11-30T01:32:07.184Z,94.29
2022-11-30T01:34:43.224Z,94.34
2022-11-30T01:37:12.187Z,93.99
2022-11-30T01:39:49.905Z,94.40
2022-11-30T01:42:23.091Z,93.84
2022-11-30T01:45:02.010Z,94.21
2022-11-30T01:47:34.018Z,95.06
2022-11-30T01:50:07.738Z,95.38
2022-11-30T01:52:46.019Z,95.11
2022-11-30T01:55:21.463Z,94.49
2022-11-30T01:57:58.209Z,94.97
2022-11-30T02:00:30.614Z,95.10
2022-11-30T02:03:07.355Z,94.64
2022-11-30T02:05:39.480Z,94.00
2022-11-30T02:08:25.999Z,94.02
2022-11-30T02:11:07.639Z,93.88
2022-11-30T02:14:01.041Z,94.27
2022-11-30T02:16:42.169Z,94.98
2022-11-30T02:19:46.295Z,94.70
2022-11-30T02:22:25.429Z,94.03
2022-11-30T02:25:09.708Z,93.80
2022-11-30T02:28:00.198Z,93.32
2022-11-30T02:30:40.229Z,93.78
2022-11-30T02:33:26.619Z,93.96
2022-11-30T02:35:59.112Z,95.05
2022-11-30T02:38:31.040Z,95.23
2022-11-30T02:41:22.005Z,95.32
2022-11-30T02:43:57.236Z,95.03
2022-11-30T02:46:44.585Z,94.59
2022-11-30T02:49:24.972Z,94.27
2022-11-30T02:51:57.728Z,94.13
2022-11-30T02:54:29.607Z,94.08
2022-11-30T02:57:00.852Z,94.10
2022-11-30T02:59:45.675Z,94.39
2022-11-30T03:02:21.551Z,94.12
2022-11-30T03:05:05.215Z,94.57
2022-11-30T03:07:35.595Z,95.19
2022-11-30T03:10:08.462Z,94.30
2022-11-30T03:12:36.460Z,94.33
2022-11-30T03:15:04.754Z,94.90
2022-11-30T03:17:34.143Z,94.92
2022-11-30T03:20:02.824Z,94.48
2022-11-30T03:22:32.254Z,94.90
2022-11-30T03:25:01.757Z,95.17
2022-11-30T03:27:32.977Z,95.37
2022-11-30T03:30:00.683Z,96.11
2022-11-30T03:32:32.290Z,96.24
2022-11-30T03:35:01.436Z,96.14
2022-11-30T03:37:39.722Z,96.35
2022-11-30T03:40:11.504Z,96.29
2022-11-30T03:42:43.195Z,96.66
2022-11-30T03:45:17.588Z,96.76
2022-11-30T03:47:56.774Z,97.16
2022-11-30T03:50:27.715Z,96.68
2022-11-30T03:53:05.354Z,96.63
2022-11-30T03:55:36.475Z,96.94
2022-11-30T03:58:04.259Z,96.30
2022-11-30T04:00:33.326Z,97.06
2022-11-30T04:03:01.068Z,96.63
2022-11-30T04:05:30.559Z,96.42
2022-11-30T04:07:58.616Z,96.13
2022-11-30T04:10:28.616Z,95.41
2022-11-30T04:13:03.109Z,95.24
2022-11-30T04:15:33.068Z,95.03
2022-11-30T04:18:00.884Z,95.55
2022-11-30T04:20:30.226Z,95.88
2022-11-30T04:23:00.953Z,96.33
2022-11-30T04:25:29.147Z,96.46
2022-11-30T04:27:58.676Z,96.86
2022-11-30T04:30:26.476Z,96.96
2022-11-30T04:32:54.234Z,97.70
2022-11-30T04:35:22.407Z,96.95
2022-11-30T04:37:54.312Z,97.08
2022-11-30T04:40:22.499Z,97.32
2022-11-30T04:42:50.059Z,97.48
2022-11-30T04:45:18.921Z,98.08
2022-11-30T04:47:51.705Z,97.84
2022-11-30T04:50:19.811Z,98.13
2022-11-30T04:52:48.257Z,97.67
2022-11-30T04:55:19.459Z,97.83
2022-11-30T04:57:49.163Z,97.88
2022-11-30T05:00:19.242Z,97.48
2022-11-30T05:02:52.497Z,97.44
2022-11-30T05:05:21.210Z,97.83
2022-11-30T05:07:53.018Z,97.58
2022-11-30T05:13:05.827Z,98.46
2022-11-30T05:15:33.564Z,98.62
2022-11-30T05:18:01.989Z,99.40
2022-11-30T05:20:30.158Z,99.00
2022-11-30T05:22:58.587Z,98.45
2022-11-30T05:25:27.904Z,98.27
2022-11-30T05:27:59.441Z,98.92
2022-11-30T05:30:31.673Z,98.73
2022-11-30T05:33:02.960Z,98.55
2022-11-30T05:35:30.824Z,98.63
2022-11-30T05:38:00.152Z,98.55
2022-11-30T05:40:32.354Z,98.45
2022-11-30T05:43:01.009Z,98.69
2022-11-30T05:45:29.518Z,98.36
2022-11-30T05:47:57.617Z,98.83
2022-11-30T05:50:29.319Z,98.73
2022-11-30T05:53:01.125Z,98.25
2022-11-30T05:55:32.332Z,98.66
2022-11-30T05:58:02.507Z,98.86
2022-11-30T06:00:33.177Z,98.55
2022-11-30T06:03:01.119Z,98.98
2022-11-30T06:05:29.635Z,98.21
2022-11-30T06:08:00.591Z,98.56
2022-11-30T06:10:30.165Z,98.12
2022-11-30T06:12:58.024Z,97.81
2022-11-30T06:15:26.129Z,98.31
2022-11-30T06:17:58.252Z,97.87
2022-11-30T06:20:26.955Z,97.58
2022-11-30T06:22:57.608Z,97.80
2022-11-30T06:25:26.521Z,97.50
2022-11-30T06:28:03.480Z,97.30
2022-11-30T06:30:31.643Z,97.53
2022-11-30T06:33:03.969Z,97.59
2022-11-30T06:35:31.758Z,97.37
2022-11-30T06:38:01.387Z,97.72
2022-11-30T06:40:29.716Z,96.55
2022-11-30T06:43:00.398Z,97.74
2022-11-30T06:45:28.478Z,97.85
2022-11-30T06:47:56.937Z,98.18
2022-11-30T06:50:25.281Z,98.53
2022-11-30T06:53:02.055Z,98.67
2022-11-30T06:55:32.970Z,99.59
2022-11-30T06:58:07.631Z,99.86
2022-11-30T07:00:35.796Z,99.60
2022-11-30T07:03:07.232Z,99.66
2022-11-30T07:05:43.474Z,99.57
2022-11-30T07:08:11.347Z,99.44
2022-11-30T07:10:40.901Z,99.61
2022-11-30T07:13:30.795Z,99.24
2022-11-30T07:16:01.070Z,99.54
2022-11-30T07:18:32.087Z,99.68
2022-11-30T07:21:19.331Z,99.19
2022-11-30T07:24:07.774Z,99.44
2022-11-30T07:26:38.366Z,99.43
2022-11-30T07:29:09.908Z,99.71
2022-11-30T07:31:42.201Z,100.00
2022-11-30T07:34:23.844Z,99.57
2022-11-30T07:36:52.341Z,99.54
2022-11-30T07:39:41.639Z,99.53
2022-11-30T07:42:09.320Z,99.16
2022-11-30T07:44:38.486Z,99.31
2022-11-30T07:47:06.143Z,98.84
2022-11-30T07:49:33.753Z,98.04
2022-11-30T07:52:04.470Z,98.61
2022-11-30T07:54:32.075Z,99.10
2022-11-30T07:57:02.089Z,99.77
2022-11-30T07:59:30.297Z,98.77
2022-11-30T08:02:00.399Z,98.71
2022-11-30T08:04:28.307Z,98.29
2022-11-30T08:06:56.000Z,98.52
2022-11-30T08:09:23.789Z,98.36
2022-11-30T08:11:51.435Z,98.53
2022-11-30T08:14:19.131Z,98.62
2022-11-30T08:16:47.615Z,98.57
2022-11-30T08:19:16.985Z,98.80
2022-11-30T08:21:44.693Z,99.12
2022-11-30T08:24:21.189Z,99.25
2022-11-30T08:26:52.979Z,99.24
2022-11-30T08:29:20.999Z,99.42
2022-11-30T08:31:48.780Z,99.11
2022-11-30T08:34:27.133Z,99.41
2022-11-30T08:36:55.376Z,99.26
2022-11-30T08:39:23.009Z,98.70
2022-11-30T08:41:52.197Z,98.88
2022-11-30T08:44:21.338Z,98.93
2022-11-30T08:46:51.906Z,97.84
2022-11-30T08:49:23.783Z,97.29
2022-11-30T08:52:16.441Z,97.22
2022-11-30T08:54:47.476Z,97.15
2022-11-30T08:57:16.260Z,97.05
2022-11-30T08:59:44.294Z,96.85
2022-11-30T09:02:13.908Z,97.15
2022-11-30T09:04:43.211Z,96.49
2022-11-30T09:07:13.597Z,96.59
2022-11-30T09:09:41.883Z,96.67
2022-11-30T09:12:09.820Z,97.28
2022-11-30T09:14:37.542Z,96.88
2022-11-30T09:17:05.375Z,97.23
2022-11-30T09:19:34.292Z,96.67
2022-11-30T09:22:03.472Z,97.41
2022-11-30T09:24:31.430Z,96.55
2022-11-30T09:27:00.226Z,96.21
2022-11-30T09:29:27.872Z,95.65
2022-11-30T09:31:58.109Z,95.35
2022-11-30T09:34:25.744Z,94.41
2022-11-30T09:36:53.445Z,94.70
2022-11-30T09:39:23.045Z,94.91
2022-11-30T09:42:17.650Z,95.43
2022-11-30T09:44:54.266Z,94.89
2022-11-30T09:47:40.714Z,95.24
2022-11-30T09:50:15.599Z,95.73
2022-11-30T09:52:47.670Z,96.10
2022-11-30T09:55:24.029Z,96.43
2022-11-30T09:57:55.072Z,97.24
2022-11-30T10:00:25.096Z,97.22
2022-11-30T10:02:54.892Z,96.98
2022-11-30T10:05:26.875Z,96.33
2022-11-30T10:08:11.827Z,95.56
2022-11-30T10:10:44.168Z,94.47
2022-11-30T10:13:27.782Z,93.84
2022-11-30T10:16:08.198Z,93.28
2022-11-30T10:18:45.787Z,93.99
2022-11-30T10:21:27.609Z,95.36
2022-11-30T10:24:11.523Z,95.91
2022-11-30T10:26:55.801Z,96.60
2022-11-30T10:29:31.780Z,96.34
2022-11-30T10:32:01.745Z,96.19
2022-11-30T10:34:35.180Z,96.61
2022-11-30T10:37:12.083Z,96.72
2022-11-30T10:39:44.789Z,96.13
2022-11-30T10:42:21.517Z,95.72
2022-11-30T10:45:00.092Z,95.15
2022-11-30T10:47:31.244Z,94.88
2022-11-30T10:49:59.129Z,94.66
2022-11-30T10:52:29.893Z,94.22
2022-11-30T10:55:04.237Z,93.89
2022-11-30T10:57:34.367Z,93.70
2022-11-30T11:00:07.682Z,93.76
2022-11-30T11:02:40.097Z,94.11
2022-11-30T11:05:20.656Z,94.36
2022-11-30T11:08:02.753Z,94.00
2022-11-30T11:10:35.568Z,93.77
2022-11-30T11:13:06.192Z,94.45
2022-11-30T11:15:35.568Z,93.72
2022-11-30T11:18:28.924Z,93.46
2022-11-30T11:21:06.180Z,93.05
2022-11-30T11:23:37.638Z,92.26
2022-11-30T11:26:06.425Z,91.90
2022-11-30T11:28:37.257Z,92.37
2022-11-30T11:31:19.741Z,91.80
2022-11-30T11:33:55.125Z,91.54
2022-11-30T11:36:28.782Z,90.55
2022-11-30T11:38:57.194Z,90.40
2022-11-30T11:41:28.115Z,90.14
2022-11-30T11:44:02.436Z,89.47
2022-11-30T11:46:31.858Z,88.43
2022-11-30T11:49:02.266Z,87.49
2022-11-30T11:51:32.389Z,85.97
2022-11-30T11:54:06.253Z,86.73
2022-11-30T11:56:36.483Z,86.83
2022-11-30T11:59:14.653Z,86.44
2022-11-30T12:01:51.197Z,87.88
2022-11-30T12:04:41.180Z,87.85
2022-11-30T12:07:18.492Z,88.59
2022-11-30T12:09:58.356Z,88.00
2022-11-30T12:12:26.365Z,85.50
2022-11-30T12:14:57.902Z,85.91
2022-11-30T12:17:40.738Z,86.69
2022-11-30T12:20:20.652Z,87.99
2022-11-30T12:23:13.548Z,88.80
2022-11-30T12:25:47.972Z,87.98
2022-11-30T12:28:25.889Z,87.89
2022-11-30T12:31:12.065Z,87.22
2022-11-30T12:33:58.488Z,86.17
2022-11-30T12:36:46.884Z,85.84
2022-11-30T12:39:26.477Z,86.23
2022-11-30T12:41:59.523Z,86.69
2022-11-30T12:44:42.406Z,87.21
2022-11-30T12:47:27.044Z,87.27
2022-11-30T12:50:11.809Z,88.37
2022-11-30T12:52:49.225Z,89.40
2022-11-30T12:55:34.980Z,89.45
2022-11-30T12:58:13.235Z,91.02
2022-11-30T13:00:50.865Z,91.17
2022-11-30T13:03:59.633Z,91.52
2022-11-30T13:06:33.604Z,91.61
2022-11-30T13:09:07.628Z,91.71
2022-11-30T13:11:38.432Z,91.83
2022-11-30T13:14:10.859Z,91.92
2022-11-30T13:16:40.459Z,91.26
2022-11-30T13:19:25.974Z,91.02
2022-11-30T13:22:00.445Z,91.23
2022-11-30T13:24:35.529Z,91.04
2022-11-30T13:27:11.355Z,91.15
2022-11-30T13:30:04.080Z,90.90
2022-11-30T13:32:57.523Z,90.08
2022-11-30T13:35:43.612Z,89.90
2022-11-30T13:41:09.413Z,89.08
2022-11-30T13:43:41.705Z,88.36
2022-11-30T13:46:16.780Z,87.54
2022-11-30T13:48:45.980Z,87.48
2022-11-30T13:51:36.417Z,87.61
2022-11-30T13:54:38.731Z,87.35
2022-11-30T13:57:20.282Z,86.16
2022-11-30T13:59:52.858Z,86.38
2022-11-30T14:03:00.515Z,86.59
2022-11-30T14:05:40.258Z,86.61
2022-11-30T14:08:17.883Z,86.67
2022-11-30T14:10:47.347Z,87.21
2022-11-30T14:13:32.059Z,87.97
2022-11-30T14:16:02.822Z,88.23
2022-11-30T14:18:42.096Z,88.05
2022-11-30T14:21:20.738Z,88.12
2022-11-30T14:24:00.888Z,88.00
2022-11-30T14:26:31.583Z,87.68
2022-11-30T14:29:05.184Z,87.60
2022-11-30T14:31:38.293Z,87.42
2022-11-30T14:34:14.124Z,87.57
2022-11-30T14:36:48.770Z,87.15
2022-11-30T14:39:35.133Z,87.25
2022-11-30T14:42:05.139Z,87.72
2022-11-30T14:44:42.817Z,88.42
2022-11-30T14:47:16.776Z,89.59
2022-11-30T14:49:52.140Z,89.58
2022-11-30T14:52:39.659Z,88.81
2022-11-30T14:55:24.851Z,89.58
2022-11-30T14:58:06.942Z,90.07
2022-11-30T15:00:39.294Z,90.82
2022-11-30T15:03:21.964Z,92.08
2022-11-30T15:05:56.444Z,91.66
2022-11-30T15:08:47.580Z,91.71
2022-11-30T15:11:19.468Z,90.98
2022-11-30T15:13:49.671Z,90.07
2022-11-30T15:16:20.698Z,90.92
2022-11-30T15:18:52.632Z,91.15
2022-11-30T15:21:25.382Z,91.83
2022-11-30T15:23:55.702Z,92.05
2022-11-30T15:26:30.867Z,92.10
2022-11-30T15:29:02.937Z,92.12
2022-11-30T15:31:36.055Z,92.62
2022-11-30T15:34:07.196Z,93.97
2022-11-30T15:36:38.000Z,94.82
2022-11-30T15:39:08.110Z,95.52
2022-11-30T15:41:37.580Z,95.56
2022-11-30T15:44:07.029Z,94.58
2022-11-30T15:46:42.728Z,94.51
2022-11-30T15:49:21.169Z,93.37
2022-11-30T15:51:59.377Z,91.97
2022-11-30T15:54:47.719Z,91.61
2022-11-30T15:57:17.817Z,90.99
2022-11-30T16:00:03.852Z,90.43
2022-11-30T16:02:34.540Z,89.27
2022-11-30T16:05:22.477Z,89.29
2022-11-30T16:07:53.598Z,88.99
2022-11-30T16:10:24.265Z,88.69
2022-11-30T16:12:56.422Z,89.43
2022-11-30T16:15:26.655Z,88.31
2022-11-30T16:18:03.321Z,86.34
2022-11-30T16:20:32.068Z,87.40
2022-11-30T16:23:05.307Z,87.60
2022-11-30T16:25:34.096Z,88.87
2022-11-30T16:28:04.588Z,90.05
2022-11-30T16:30:32.789Z,90.61
2022-11-30T16:33:03.032Z,90.67
2022-11-30T16:35:36.762Z,91.58
2022-11-30T16:38:05.038Z,90.99
2022-11-30T16:40:38.579Z,91.40
2022-11-30T16:43:10.953Z,91.78
2022-11-30T16:45:41.333Z,91.29
2022-11-30T16:48:09.203Z,92.49
2022-11-30T16:50:37.725Z,92.47
2022-11-30T16:53:06.928Z,93.07
2022-11-30T16:55:37.716Z,92.50
2022-11-30T16:58:06.390Z,92.85
2022-11-30T17:00:36.285Z,92.79
2022-11-30T17:03:09.326Z,92.77
2022-11-30T17:05:38.068Z,93.30
2022-11-30T17:08:06.393Z,93.69
2022-11-30T17:10:34.573Z,94.06
2022-11-30T17:13:02.431Z,93.96
2022-11-30T17:15:30.250Z,93.99
2022-11-30T17:17:59.457Z,93.33
2022-11-30T17:20:28.611Z,93.93
2022-11-30T17:22:56.316Z,93.89
2022-11-30T17:25:25.170Z,93.51
2022-11-30T17:27:53.211Z,93.51
2022-11-30T17:30:23.753Z,93.41
2022-11-30T17:32:52.085Z,94.18
2022-11-30T17:35:22.057Z,94.55
2022-11-30T17:37:50.667Z,94.42
2022-11-30T17:40:18.488Z,94.30
2022-11-30T17:42:46.179Z,94.12
2022-11-30T17:45:14.254Z,94.39
2022-11-30T17:47:41.973Z,95.20
2022-11-30T17:50:11.503Z,94.74
2022-11-30T17:52:40.507Z,94.26
2022-11-30T17:55:09.090Z,94.35
2022-11-30T17:57:38.402Z,94.85
2022-11-30T18:00:07.984Z,95.27
2022-11-30T18:02:35.733Z,95.01
2022-11-30T18:05:03.441Z,94.72
2022-11-30T18:07:31.378Z,94.49
2022-11-30T18:10:01.757Z,95.01
2022-11-30T18:12:31.758Z,95.08
2022-11-30T18:15:01.696Z,95.44
2022-11-30T18:17:29.526Z,95.13
2022-11-30T18:19:57.477Z,94.87
2022-11-30T18:22:25.595Z,95.05
2022-11-30T18:24:53.336Z,94.96
2022-11-30T18:27:25.076Z,95.02
2022-11-30T18:29:52.995Z,95.14
2022-11-30T18:32:20.853Z,95.21
2022-11-30T18:34:49.740Z,94.91
2022-11-30T18:37:17.915Z,94.50
2022-11-30T18:39:45.802Z,94.77
2022-11-30T18:42:13.511Z,94.18
2022-11-30T18:44:45.253Z,93.43
2022-11-30T18:47:13.386Z,93.49
2022-11-30T18:49:41.024Z,93.66
2022-11-30T18:52:09.236Z,93.84
2022-11-30T18:54:37.202Z,93.45
2022-11-30T18:57:05.079Z,93.81
2022-11-30T18:59:33.215Z,93.21
2022-11-30T19:02:02.722Z,93.19
2022-11-30T19:04:31.075Z,95.11
2022-11-30T19:06:58.870Z,94.79
2022-11-30T19:09:29.251Z,93.62
2022-11-30T19:11:58.032Z,92.57
2022-11-30T19:14:28.886Z,93.14
2022-11-30T19:16:56.524Z,92.83
2022-11-30T19:19:26.875Z,93.30
2022-11-30T19:21:54.901Z,93.71
2022-11-30T19:24:22.675Z,93.30
2022-11-30T19:26:52.308Z,93.50
2022-11-30T19:29:20.236Z,93.83
2022-11-30T19:31:48.998Z,94.30
2022-11-30T19:34:16.619Z,94.34
2022-11-30T19:36:46.027Z,94.14
2022-11-30T19:39:19.396Z,93.73
2022-11-30T19:41:47.808Z,93.00
2022-11-30T19:44:18.561Z,92.33
2022-11-30T19:46:46.357Z,92.72
2022-11-30T19:49:14.049Z,93.84
2022-11-30T19:51:41.669Z,94.15
2022-11-30T19:54:10.675Z,94.25
2022-11-30T19:56:39.098Z,94.13
2022-11-30T19:59:06.821Z,94.55
2022-11-30T20:01:35.477Z,94.42
2022-11-30T20:04:04.499Z,93.29
2022-11-30T20:06:34.586Z,93.55
2022-11-30T20:09:03.248Z,94.31
2022-11-30T20:11:32.900Z,94.55
2022-11-30T20:14:00.982Z,94.29
2022-11-30T20:16:30.166Z,94.99
2022-11-30T20:19:00.560Z,95.66
2022-11-30T20:21:31.550Z,95.62
2022-11-30T20:24:01.418Z,95.41
2022-11-30T20:26:34.264Z,95.56
2022-11-30T20:29:04.765Z,96.10
2022-11-30T20:31:35.712Z,95.88
2022-11-30T20:34:03.669Z,95.01
2022-11-30T20:36:31.638Z,94.85
2022-11-30T20:39:00.080Z,94.44
2022-11-30T20:41:28.722Z,93.66
2022-11-30T20:43:57.829Z,93.76
2022-11-30T20:46:28.055Z,94.18
2022-11-30T20:48:56.931Z,94.25
2022-11-30T20:51:31.657Z,93.23
2022-11-30T20:54:01.043Z,92.88
2022-11-30T20:56:29.133Z,94.10
2022-11-30T20:59:04.164Z,94.10
2022-11-30T21:01:31.975Z,94.21
2022-11-30T21:04:00.674Z,94.86
2022-11-30T21:06:28.597Z,94.79
2022-11-30T21:08:56.594Z,95.26
2022-11-30T21:11:24.578Z,95.24
2022-11-30T21:13:52.913Z,96.73
2022-11-30T21:16:28.300Z,96.38
2022-11-30T21:18:57.978Z,96.24
2022-11-30T21:21:28.033Z,95.83
2022-11-30T21:23:55.710Z,95.49
2022-11-30T21:26:25.666Z,95.49
2022-11-30T21:28:55.793Z,95.44
2022-11-30T21:31:25.368Z,95.29
2022-11-30T21:33:54.483Z,95.15
2022-11-30T21:36:23.138Z,95.51
2022-11-30T21:38:58.148Z,95.41
2022-11-30T21:41:31.025Z,95.42
2022-11-30T21:43:58.887Z,95.98
2022-11-30T21:46:28.739Z,96.07
2022-11-30T21:48:56.546Z,96.00
2022-11-30T21:51:26.484Z,96.02
2022-11-30T21:53:57.025Z,96.15
2022-11-30T21:56:26.629Z,96.78
2022-11-30T21:58:54.493Z,96.81
2022-11-30T22:01:27.016Z,97.51
2022-11-30T22:03:58.130Z,96.47
2022-11-30T22:06:28.300Z,95.19
2022-11-30T22:08:57.677Z,94.74
2022-11-30T22:11:25.816Z,94.24
2022-11-30T22:13:54.820Z,93.79
2022-11-30T22:16:24.358Z,93.76
2022-11-30T22:18:54.297Z,94.40
2022-11-30T22:21:25.290Z,94.00
2022-11-30T22:23:55.396Z,94.27
2022-11-30T22:26:26.719Z,93.68
2022-11-30T22:28:56.939Z,93.82
2022-11-30T22:31:26.559Z,93.35
2022-11-30T22:33:54.436Z,93.23
2022-11-30T22:36:25.420Z,93.42
2022-11-30T22:38:56.224Z,93.56
2022-11-30T22:41:26.456Z,93.75
2022-11-30T22:43:55.841Z,94.73
2022-11-30T22:46:25.241Z,94.59
2022-11-30T22:48:53.515Z,95.03
2022-11-30T22:51:25.961Z,95.17
2022-11-30T22:53:54.176Z,95.71
2022-11-30T22:56:23.725Z,95.77
2022-11-30T22:58:53.860Z,95.81
2022-11-30T23:01:23.702Z,96.17
2022-11-30T23:03:53.388Z,95.62
2022-11-30T23:06:22.208Z,96.24
2022-11-30T23:08:52.354Z,95.56
2022-11-30T23:11:23.264Z,95.69
2022-11-30T23:13:51.153Z,95.63
2022-11-30T23:16:20.006Z,96.55
2022-11-30T23:18:49.866Z,97.35
2022-11-30T23:21:20.099Z,97.92
2022-11-30T23:23:48.765Z,98.52
2022-11-30T23:26:19.906Z,98.43
2022-11-30T23:28:50.061Z,98.74
2022-11-30T23:31:34.652Z,98.35
2022-11-30T23:34:05.364Z,98.29
2022-11-30T23:36:33.460Z,98.82
2022-11-30T23:39:02.667Z,98.87
2022-11-30T23:41:31.898Z,98.20
2022-11-30T23:43:59.590Z,97.40
2022-11-30T23:46:27.572Z,97.51
2022-11-30T23:48:55.964Z,97.22
2022-11-30T23:51:24.750Z,96.02
2022-11-30T23:53:52.742Z,94.97
2022-11-30T23:56:22.304Z,95.11
2022-11-30T23:58:51.308Z,95.75
